Česky Dansk Deutsch English Español Suomi Français Magyar Italiano Nederlands norsk Polski Português svenska Türkçe

 

Het Weer

Duesseldorf (Duitsland)

00:20, 19 augustus 2016 (GMT)

NWNNE
WE
SWSSE
Home            
Duesseldorf Essen Monchengladbach Brueggen Noervenich Laarbruch Niederrhein Koeln / Bonn Kalkar Geilenkirchen Dortmund / Wickede Aachen / Merzbruck Maastricht Airport Zuid Limburg Volkel Kleine Brogel Eindhoven Genk Elsenborn Deelen Twenthe Spa / La Sauveniere Mendig Muenster / Osnabrueck

Om een weerknop op uw website of weblog te plaatsen, copieer onderstaande code en plak die in uw pagina. In het eerste vakje staat HTML-code, in het tweede vakje UBB-code.


Add to Google

Details

Wind speed:1 bf, 1 kn, 0.5 m/s, 1.2 miles/h, 1.9 km/h
Wind direction:NW, 320°
Visibility:Greater than 10000 m, 10 km, 32800 ft, 6.2 miles
Clouds:CAVOC
Temperature:13°C, 55°F
Dew-point:12°C, 54°F
Atmospheric pressure:1010 hPa, 757.6 mmHg, 29.83 inHg, 0.997 atm
Relative humidity:93.6 %
METAR:EDDL 190020Z 32001KT CAVOK 13/12 Q1010 NOSIG

Snelkoppelingen

Actuele weersinformatie van de hele wereld. Voeg locaties toe met het plus (+) symbool. Deze snelkoppelingen kunnen worden toegevoegd aan Google.

Lid van de Technetium groep

website free tracking
StatCounter NetStat W3C Validator

03-06-2020 02:19:26
astro.technetium.be money.technetium.be phote.technetium.be tafeltennistafel.technetium.be www.ligfiets.net